createdAt,value
2017-03-06T00:00:14.289Z,987.26
2017-03-06T00:00:35.993Z,987.35
2017-03-06T00:00:57.692Z,987.21
2017-03-06T00:01:19.390Z,987.29
2017-03-06T00:02:12.383Z,987.24
2017-03-06T00:03:05.342Z,987.30
2017-03-06T00:03:58.296Z,987.35
2017-03-06T00:04:20.005Z,987.37
2017-03-06T00:04:46.482Z,987.28
2017-03-06T00:05:08.181Z,987.31
2017-03-06T00:05:29.874Z,987.39
2017-03-06T00:06:32.939Z,987.24
2017-03-06T00:06:54.633Z,987.35
2017-03-06T00:07:47.588Z,987.46
2017-03-06T00:08:09.297Z,987.43
2017-03-06T00:08:31.020Z,987.38
2017-03-06T00:08:52.718Z,987.42
2017-03-06T00:09:14.422Z,987.25
2017-03-06T00:09:40.900Z,987.16
2017-03-06T00:10:02.626Z,987.28
2017-03-06T00:10:24.331Z,987.40
2017-03-06T00:10:50.821Z,987.34
2017-03-06T00:11:12.501Z,987.37
2017-03-06T00:11:38.990Z,987.39
2017-03-06T00:12:00.709Z,987.30
2017-03-06T00:12:22.431Z,987.33
2017-03-06T00:12:48.898Z,987.49
2017-03-06T00:13:10.589Z,987.41
2017-03-06T00:13:37.072Z,987.47
2017-03-06T00:13:58.767Z,987.39
2017-03-06T00:14:25.240Z,987.50
2017-03-06T00:14:46.948Z,987.50
2017-03-06T00:15:08.664Z,987.36
2017-03-06T00:16:11.162Z,987.39
2017-03-06T00:16:32.885Z,987.64
2017-03-06T00:16:54.610Z,987.54
2017-03-06T00:17:47.553Z,987.50
2017-03-06T00:18:40.496Z,987.46
2017-03-06T00:19:33.461Z,987.57
2017-03-06T00:19:59.935Z,987.52
2017-03-06T00:20:21.635Z,987.45
2017-03-06T00:20:43.342Z,987.51
2017-03-06T00:21:09.826Z,987.55
2017-03-06T00:21:31.519Z,987.49
2017-03-06T00:22:24.546Z,987.55
2017-03-06T00:22:46.257Z,987.42
2017-03-06T00:23:07.971Z,987.44
2017-03-06T00:23:29.682Z,987.44
2017-03-06T00:23:51.394Z,987.55
2017-03-06T00:24:17.861Z,987.43
2017-03-06T00:24:39.562Z,987.38
2017-03-06T00:25:06.038Z,987.52
2017-03-06T00:25:27.727Z,987.55
2017-03-06T00:25:49.433Z,987.61
2017-03-06T00:26:11.142Z,987.62
2017-03-06T00:26:32.848Z,987.63
2017-03-06T00:26:54.576Z,987.45
2017-03-06T00:27:21.056Z,987.46
2017-03-06T00:27:42.815Z,987.63
2017-03-06T00:28:04.520Z,987.64
2017-03-06T00:29:02.853Z,987.61
2017-03-06T00:29:24.536Z,987.54
2017-03-06T00:30:17.492Z,987.51
2017-03-06T00:30:39.213Z,987.51
2017-03-06T00:31:05.690Z,987.53
2017-03-06T00:31:27.401Z,987.62
2017-03-06T00:31:49.176Z,987.56
2017-03-06T00:32:10.893Z,987.58
2017-03-06T00:32:32.582Z,987.54
2017-03-06T00:32:54.309Z,987.56
2017-03-06T00:33:20.785Z,987.59
2017-03-06T00:33:42.479Z,987.61
2017-03-06T00:34:04.179Z,987.60
2017-03-06T00:34:30.646Z,987.58
2017-03-06T00:34:52.345Z,987.63
2017-03-06T00:35:14.050Z,987.61
2017-03-06T00:35:40.527Z,987.55
2017-03-06T00:36:02.227Z,987.62
2017-03-06T00:36:28.706Z,987.61
2017-03-06T00:36:50.410Z,987.70
2017-03-06T00:37:12.121Z,987.82
2017-03-06T00:37:38.603Z,987.66
2017-03-06T00:38:00.327Z,987.61
2017-03-06T00:38:22.028Z,987.66
2017-03-06T00:39:14.987Z,987.69
2017-03-06T00:39:36.709Z,987.59
2017-03-06T00:40:29.654Z,987.62
2017-03-06T00:40:51.371Z,987.81
2017-03-06T00:41:17.849Z,987.80
2017-03-06T00:41:39.546Z,987.71
2017-03-06T00:42:06.037Z,987.80
2017-03-06T00:42:27.730Z,987.69
2017-03-06T00:42:49.443Z,987.74
2017-03-06T00:43:15.947Z,987.78
2017-03-06T00:43:37.648Z,987.75
2017-03-06T00:43:59.368Z,987.74
2017-03-06T00:44:25.839Z,987.74
2017-03-06T00:44:47.539Z,987.79
2017-03-06T00:45:40.479Z,987.76
2017-03-06T00:46:06.955Z,987.81
2017-03-06T00:46:28.666Z,987.84
2017-03-06T00:47:21.621Z,987.83
2017-03-06T00:47:43.318Z,987.72
2017-03-06T00:48:09.797Z,987.72
2017-03-06T00:48:31.498Z,987.74
2017-03-06T00:49:24.438Z,987.91
2017-03-06T00:49:46.153Z,987.94
2017-03-06T00:50:07.856Z,988.20
2017-03-06T00:50:29.576Z,988.00
2017-03-06T00:50:56.060Z,987.96
2017-03-06T00:51:17.772Z,987.87
2017-03-06T00:52:20.859Z,987.93
2017-03-06T00:52:42.546Z,987.94
2017-03-06T00:53:04.280Z,987.99
2017-03-06T00:53:30.745Z,987.97
2017-03-06T00:53:52.445Z,988.00
2017-03-06T00:54:14.143Z,987.84
2017-03-06T00:54:40.614Z,987.85
2017-03-06T00:55:02.311Z,987.90
2017-03-06T00:55:28.791Z,987.83
2017-03-06T00:55:50.476Z,987.89
2017-03-06T00:56:12.186Z,988.02
2017-03-06T00:56:33.904Z,988.13
2017-03-06T00:56:55.602Z,987.99
2017-03-06T00:57:17.306Z,988.00
2017-03-06T00:57:39.021Z,987.95
2017-03-06T00:58:00.703Z,988.02
2017-03-06T00:59:03.801Z,987.97
2017-03-06T00:59:25.502Z,988.02
2017-03-06T00:59:47.199Z,988.05
2017-03-06T01:00:08.905Z,987.87
2017-03-06T01:00:30.703Z,987.80
2017-03-06T01:00:52.403Z,987.85
2017-03-06T01:01:18.885Z,987.93
2017-03-06T01:01:40.578Z,987.95
2017-03-06T01:02:07.133Z,988.04
2017-03-06T01:02:28.832Z,988.04
2017-03-06T01:02:50.517Z,987.96
2017-03-06T01:03:17.077Z,988.10
2017-03-06T01:03:38.770Z,988.04
2017-03-06T01:04:00.473Z,987.93
2017-03-06T01:04:26.941Z,987.97
2017-03-06T01:04:48.645Z,988.06
2017-03-06T01:05:10.357Z,987.96
2017-03-06T01:05:36.834Z,988.03
2017-03-06T01:05:58.523Z,987.94
2017-03-06T01:06:51.499Z,987.93
2017-03-06T01:07:13.202Z,987.94
2017-03-06T01:07:39.673Z,987.96
2017-03-06T01:08:01.366Z,987.86
2017-03-06T01:08:23.080Z,987.79
2017-03-06T01:08:49.567Z,987.96
2017-03-06T01:09:11.257Z,987.94
2017-03-06T01:09:32.975Z,987.97
2017-03-06T01:09:54.677Z,987.84
2017-03-06T01:10:16.380Z,987.97
2017-03-06T01:10:38.090Z,987.88
2017-03-06T01:10:59.789Z,987.78
2017-03-06T01:11:21.493Z,987.84
2017-03-06T01:11:43.182Z,987.87
2017-03-06T01:12:36.144Z,988.01
2017-03-06T01:12:57.845Z,987.91
2017-03-06T01:13:24.347Z,987.92
2017-03-06T01:13:46.046Z,987.97
2017-03-06T01:14:07.757Z,987.89
2017-03-06T01:14:29.465Z,987.97
2017-03-06T01:14:51.159Z,987.98
2017-03-06T01:15:17.637Z,988.03
2017-03-06T01:15:39.330Z,988.09
2017-03-06T01:16:32.287Z,987.99
2017-03-06T01:16:53.992Z,988.01
2017-03-06T01:17:20.473Z,988.02
2017-03-06T01:17:42.172Z,987.94
2017-03-06T01:18:03.861Z,987.96
2017-03-06T01:18:56.807Z,988.03
2017-03-06T01:19:49.759Z,988.04
2017-03-06T01:20:11.461Z,987.99
2017-03-06T01:21:18.750Z,987.82
2017-03-06T01:21:40.437Z,987.98
2017-03-06T01:22:33.388Z,987.93
2017-03-06T01:22:59.877Z,988.15
2017-03-06T01:23:21.569Z,988.03
2017-03-06T01:23:48.034Z,987.87
2017-03-06T01:24:09.740Z,988.04
2017-03-06T01:24:31.454Z,987.97
2017-03-06T01:25:24.397Z,987.89
2017-03-06T01:26:17.344Z,987.98
2017-03-06T01:26:39.061Z,987.98
2017-03-06T01:27:05.535Z,988.00
2017-03-06T01:27:27.239Z,987.87
2017-03-06T01:28:20.196Z,988.10
2017-03-06T01:29:23.253Z,988.03
2017-03-06T01:29:44.955Z,988.09
2017-03-06T01:30:06.660Z,987.97
2017-03-06T01:30:33.145Z,988.01
2017-03-06T01:30:54.940Z,988.04
2017-03-06T01:31:16.644Z,988.11
2017-03-06T01:31:38.342Z,987.94
2017-03-06T01:32:00.050Z,987.99
2017-03-06T01:32:21.771Z,988.10
2017-03-06T01:32:43.466Z,988.03
2017-03-06T01:33:05.167Z,988.04
2017-03-06T01:33:26.870Z,988.01
2017-03-06T01:33:48.602Z,988.03
2017-03-06T01:34:10.315Z,988.00
2017-03-06T01:34:32.022Z,988.02
2017-03-06T01:34:53.731Z,988.14
2017-03-06T01:35:15.423Z,988.03
2017-03-06T01:35:37.124Z,988.06
2017-03-06T01:36:03.607Z,988.00
2017-03-06T01:36:25.318Z,988.03
2017-03-06T01:36:47.013Z,988.03
2017-03-06T01:37:39.973Z,988.03
2017-03-06T01:38:06.447Z,988.02
2017-03-06T01:38:28.140Z,988.09
2017-03-06T01:38:49.877Z,988.12
2017-03-06T01:39:48.181Z,988.01
2017-03-06T01:40:09.879Z,988.01
2017-03-06T01:40:31.590Z,988.02
2017-03-06T01:41:24.537Z,988.09
2017-03-06T01:41:46.235Z,988.08
2017-03-06T01:42:07.935Z,988.02
2017-03-06T01:42:29.635Z,988.07
2017-03-06T01:43:27.946Z,988.18
2017-03-06T01:43:49.683Z,988.03
2017-03-06T01:44:16.162Z,987.97
2017-03-06T01:44:37.855Z,988.04
2017-03-06T01:45:40.361Z,987.90
2017-03-06T01:46:02.058Z,987.98
2017-03-06T01:46:23.775Z,987.87
2017-03-06T01:46:45.475Z,987.95
2017-03-06T01:47:07.167Z,987.98
2017-03-06T01:48:00.121Z,987.84
2017-03-06T01:48:26.588Z,987.80
2017-03-06T01:48:48.281Z,987.89
2017-03-06T01:49:10.004Z,987.83
2017-03-06T01:50:02.962Z,987.98
2017-03-06T01:50:55.917Z,987.86
2017-03-06T01:51:17.620Z,987.94
2017-03-06T01:51:39.329Z,987.94
2017-03-06T01:52:01.020Z,987.91
2017-03-06T01:52:27.494Z,987.98
2017-03-06T01:52:49.255Z,987.96
2017-03-06T01:53:15.723Z,987.91
2017-03-06T01:53:37.423Z,987.96
2017-03-06T01:54:03.890Z,987.88
2017-03-06T01:54:25.625Z,988.00
2017-03-06T01:54:52.095Z,988.02
2017-03-06T01:55:18.567Z,988.09
2017-03-06T01:55:40.277Z,987.88
2017-03-06T01:56:01.988Z,987.93
2017-03-06T01:56:23.695Z,987.94
2017-03-06T01:56:45.403Z,988.00
2017-03-06T01:57:11.878Z,988.05
2017-03-06T01:57:33.582Z,988.07
2017-03-06T01:57:55.308Z,988.04
2017-03-06T01:58:21.788Z,987.89
2017-03-06T01:58:43.481Z,987.97
2017-03-06T01:59:05.193Z,987.88
2017-03-06T01:59:31.666Z,987.99
2017-03-06T01:59:53.359Z,987.91
2017-03-06T02:00:15.053Z,987.94
2017-03-06T02:00:36.758Z,987.94
2017-03-06T02:00:58.444Z,987.92
2017-03-06T02:01:24.925Z,988.00
2017-03-06T02:01:46.616Z,987.93
2017-03-06T02:02:13.084Z,988.04
2017-03-06T02:02:34.776Z,987.84
2017-03-06T02:02:56.466Z,988.01
2017-03-06T02:03:22.949Z,987.98
2017-03-06T02:03:44.655Z,988.05
2017-03-06T02:04:37.626Z,988.01
2017-03-06T02:04:59.329Z,987.97
2017-03-06T02:05:25.814Z,988.04
2017-03-06T02:05:47.511Z,987.93
2017-03-06T02:06:09.199Z,987.94
2017-03-06T02:06:30.898Z,987.81
2017-03-06T02:06:52.588Z,987.88
2017-03-06T02:07:45.530Z,987.92
2017-03-06T02:08:12.013Z,988.03
2017-03-06T02:08:33.714Z,987.90
2017-03-06T02:09:00.193Z,987.84
2017-03-06T02:09:21.902Z,987.82
2017-03-06T02:10:24.998Z,987.92
2017-03-06T02:10:46.710Z,987.87
2017-03-06T02:11:08.424Z,987.91
2017-03-06T02:11:34.898Z,987.86
2017-03-06T02:11:56.595Z,987.92
2017-03-06T02:12:18.288Z,987.91
2017-03-06T02:12:44.775Z,987.86
2017-03-06T02:13:06.470Z,987.77
2017-03-06T02:13:28.176Z,987.83
2017-03-06T02:14:21.132Z,987.87
2017-03-06T02:14:47.654Z,987.93
2017-03-06T02:15:09.350Z,987.89
2017-03-06T02:16:02.302Z,987.93
2017-03-06T02:16:28.774Z,987.99
2017-03-06T02:16:50.463Z,987.88
2017-03-06T02:17:12.167Z,987.90
2017-03-06T02:18:05.120Z,987.74
2017-03-06T02:18:26.819Z,987.85
2017-03-06T02:18:48.543Z,987.78
2017-03-06T02:19:10.236Z,987.84
2017-03-06T02:20:13.330Z,987.79
2017-03-06T02:20:35.025Z,987.78
2017-03-06T02:20:56.755Z,987.74
2017-03-06T02:21:23.224Z,987.76
2017-03-06T02:21:44.919Z,987.72
2017-03-06T02:22:06.607Z,987.71
2017-03-06T02:22:59.587Z,987.68
2017-03-06T02:23:21.293Z,987.67
2017-03-06T02:23:42.994Z,987.70
2017-03-06T02:24:04.698Z,987.74
2017-03-06T02:25:11.967Z,987.77
2017-03-06T02:25:33.670Z,987.71
2017-03-06T02:26:36.182Z,987.68
2017-03-06T02:26:57.884Z,987.73
2017-03-06T02:27:24.367Z,987.86
2017-03-06T02:27:46.061Z,987.78
2017-03-06T02:28:49.129Z,987.77
2017-03-06T02:29:10.820Z,987.72
2017-03-06T02:30:03.775Z,987.83
2017-03-06T02:30:25.477Z,987.66
2017-03-06T02:30:47.188Z,987.75
2017-03-06T02:31:08.879Z,987.68
2017-03-06T02:31:30.583Z,987.82
2017-03-06T02:31:57.077Z,987.85
2017-03-06T02:32:18.841Z,987.79
2017-03-06T02:32:40.550Z,987.77
2017-03-06T02:33:07.020Z,987.85
2017-03-06T02:33:28.726Z,987.90
2017-03-06T02:33:55.201Z,987.73
2017-03-06T02:34:16.913Z,987.79
2017-03-06T02:34:38.617Z,987.78
2017-03-06T02:35:41.779Z,987.83
2017-03-06T02:36:03.473Z,987.74
2017-03-06T02:36:25.171Z,987.79
2017-03-06T02:36:46.873Z,987.74
2017-03-06T02:37:08.563Z,987.73
2017-03-06T02:37:35.039Z,987.75
2017-03-06T02:37:56.748Z,987.73
2017-03-06T02:38:18.451Z,987.68
2017-03-06T02:39:25.729Z,987.66
2017-03-06T02:39:47.429Z,987.68
2017-03-06T02:40:09.173Z,987.72
2017-03-06T02:40:30.878Z,987.66
2017-03-06T02:40:52.575Z,987.64
2017-03-06T02:41:59.840Z,987.63
2017-03-06T02:42:21.538Z,987.67
2017-03-06T02:42:43.327Z,987.61
2017-03-06T02:43:05.033Z,987.71
2017-03-06T02:43:26.729Z,987.69
2017-03-06T02:43:48.422Z,987.65
2017-03-06T02:44:46.707Z,987.71
2017-03-06T02:45:08.404Z,987.75
2017-03-06T02:46:01.351Z,987.63
2017-03-06T02:46:27.828Z,987.65
2017-03-06T02:46:49.529Z,987.68
2017-03-06T02:47:42.473Z,987.71
2017-03-06T02:48:04.180Z,987.68
2017-03-06T02:49:02.518Z,987.68
2017-03-06T02:49:24.220Z,987.65
2017-03-06T02:50:27.254Z,987.75
2017-03-06T02:50:48.967Z,987.65
2017-03-06T02:51:10.671Z,987.52
2017-03-06T02:51:37.129Z,987.71
2017-03-06T02:51:58.835Z,987.58
2017-03-06T02:52:51.788Z,987.60
2017-03-06T02:53:13.503Z,987.71
2017-03-06T02:53:35.219Z,987.70
2017-03-06T02:53:56.918Z,987.60
2017-03-06T02:54:18.623Z,987.63
2017-03-06T02:54:45.094Z,987.62
2017-03-06T02:55:06.787Z,987.60
2017-03-06T02:55:33.267Z,987.64
2017-03-06T02:55:55.053Z,987.63
2017-03-06T02:56:21.523Z,987.57
2017-03-06T02:56:43.215Z,987.58
2017-03-06T02:57:04.925Z,987.59
2017-03-06T02:57:31.430Z,987.55
2017-03-06T02:57:53.132Z,987.54
2017-03-06T02:58:14.835Z,987.60
2017-03-06T02:58:36.540Z,987.59
2017-03-06T02:58:58.261Z,987.44
2017-03-06T02:59:24.744Z,987.38
2017-03-06T02:59:46.431Z,987.44
2017-03-06T03:00:39.375Z,987.63
2017-03-06T03:01:01.098Z,987.56
2017-03-06T03:01:54.057Z,987.56
2017-03-06T03:02:15.772Z,987.58
2017-03-06T03:03:08.710Z,987.58
2017-03-06T03:04:01.660Z,987.56
2017-03-06T03:04:28.129Z,987.55
2017-03-06T03:04:49.826Z,987.58
2017-03-06T03:05:11.522Z,987.52
2017-03-06T03:05:33.227Z,987.58
2017-03-06T03:05:54.915Z,987.47
2017-03-06T03:06:16.666Z,987.61
2017-03-06T03:06:43.127Z,987.62
2017-03-06T03:07:04.819Z,987.54
2017-03-06T03:07:26.531Z,987.47
2017-03-06T03:08:19.481Z,987.61
2017-03-06T03:08:41.206Z,987.56
2017-03-06T03:09:02.924Z,987.55
2017-03-06T03:09:24.623Z,987.59
2017-03-06T03:09:46.332Z,987.49
2017-03-06T03:10:12.796Z,987.52
2017-03-06T03:10:34.489Z,987.50
2017-03-06T03:11:00.956Z,987.51
2017-03-06T03:11:22.679Z,987.53
2017-03-06T03:11:44.380Z,987.53
2017-03-06T03:12:06.084Z,987.48
2017-03-06T03:12:27.782Z,987.59
2017-03-06T03:12:54.249Z,987.44
2017-03-06T03:13:15.946Z,987.54
2017-03-06T03:13:37.659Z,987.60
2017-03-06T03:14:30.613Z,987.45
2017-03-06T03:14:52.313Z,987.40
2017-03-06T03:15:14.012Z,987.43
2017-03-06T03:15:35.714Z,987.43
2017-03-06T03:15:57.416Z,987.47
2017-03-06T03:16:23.939Z,987.54
2017-03-06T03:16:45.645Z,987.53
2017-03-06T03:17:07.340Z,987.45
2017-03-06T03:18:00.323Z,987.43
2017-03-06T03:18:26.803Z,987.47
2017-03-06T03:18:48.519Z,987.44
2017-03-06T03:19:10.243Z,987.43
2017-03-06T03:19:36.748Z,987.47
2017-03-06T03:19:58.450Z,987.43
2017-03-06T03:20:20.147Z,987.48
2017-03-06T03:20:41.853Z,987.43
2017-03-06T03:21:03.569Z,987.49
2017-03-06T03:21:56.521Z,987.45
2017-03-06T03:22:22.998Z,987.47
2017-03-06T03:22:44.694Z,987.42
2017-03-06T03:23:06.390Z,987.35
2017-03-06T03:23:32.878Z,987.31
2017-03-06T03:23:54.572Z,987.36
2017-03-06T03:24:16.267Z,987.46
2017-03-06T03:24:42.750Z,987.43
2017-03-06T03:25:04.446Z,987.35
2017-03-06T03:25:30.919Z,987.37
2017-03-06T03:25:52.610Z,987.39
2017-03-06T03:26:14.304Z,987.40
2017-03-06T03:26:36.041Z,987.33
2017-03-06T03:26:57.730Z,987.28
2017-03-06T03:27:19.428Z,987.41
2017-03-06T03:27:45.907Z,987.42
2017-03-06T03:28:07.608Z,987.53
2017-03-06T03:28:29.312Z,987.43
2017-03-06T03:28:55.794Z,987.39
2017-03-06T03:29:17.485Z,987.39
2017-03-06T03:29:39.200Z,987.42
2017-03-06T03:30:00.924Z,987.36
2017-03-06T03:30:22.624Z,987.38
2017-03-06T03:31:15.594Z,987.29
2017-03-06T03:31:37.367Z,987.39
2017-03-06T03:32:03.839Z,987.36
2017-03-06T03:32:25.532Z,987.39
2017-03-06T03:32:47.223Z,987.37
2017-03-06T03:33:13.705Z,987.30
2017-03-06T03:33:35.401Z,987.44
2017-03-06T03:34:01.884Z,987.35
2017-03-06T03:34:23.606Z,987.33
2017-03-06T03:34:45.292Z,987.38
2017-03-06T03:35:11.773Z,987.43
2017-03-06T03:35:33.480Z,987.34
2017-03-06T03:35:55.177Z,987.46
2017-03-06T03:36:21.658Z,987.38
2017-03-06T03:36:43.371Z,987.51
2017-03-06T03:37:09.855Z,987.43
2017-03-06T03:37:31.551Z,987.26
2017-03-06T03:37:53.259Z,987.33
2017-03-06T03:38:14.971Z,987.26
2017-03-06T03:39:07.959Z,987.32
2017-03-06T03:40:00.895Z,987.41
2017-03-06T03:41:08.169Z,987.30
2017-03-06T03:41:29.866Z,987.40
2017-03-06T03:42:22.841Z,987.43
2017-03-06T03:42:44.544Z,987.42
2017-03-06T03:43:06.250Z,987.38
2017-03-06T03:43:27.962Z,987.33
2017-03-06T03:43:54.444Z,987.32
2017-03-06T03:44:16.137Z,987.37
2017-03-06T03:44:37.850Z,987.33
2017-03-06T03:44:59.554Z,987.37
2017-03-06T03:45:21.248Z,987.28
2017-03-06T03:45:42.943Z,987.33
2017-03-06T03:46:04.649Z,987.36
2017-03-06T03:46:26.345Z,987.55
2017-03-06T03:46:48.054Z,987.33
2017-03-06T03:47:09.761Z,987.32
2017-03-06T03:48:12.259Z,987.38
2017-03-06T03:48:33.966Z,987.40
2017-03-06T03:48:55.662Z,987.31
2017-03-06T03:49:48.614Z,987.39
2017-03-06T03:50:10.304Z,987.30
2017-03-06T03:50:32.004Z,987.33
2017-03-06T03:50:53.703Z,987.31
2017-03-06T03:51:15.409Z,987.35
2017-03-06T03:52:08.442Z,987.35
2017-03-06T03:52:30.148Z,987.29
2017-03-06T03:52:56.633Z,987.27
2017-03-06T03:53:18.332Z,987.32
2017-03-06T03:53:40.030Z,987.31
2017-03-06T03:54:01.747Z,987.42
2017-03-06T03:54:23.433Z,987.32
2017-03-06T03:54:49.916Z,987.29
2017-03-06T03:55:11.606Z,987.32
2017-03-06T03:55:33.307Z,987.32
2017-03-06T03:55:59.779Z,987.32
2017-03-06T03:56:21.520Z,987.33
2017-03-06T03:56:43.210Z,987.25
2017-03-06T03:57:04.924Z,987.29
2017-03-06T03:57:26.617Z,987.33
2017-03-06T03:57:48.315Z,987.31
2017-03-06T03:58:14.792Z,987.30
2017-03-06T03:58:36.502Z,987.26
2017-03-06T03:59:02.972Z,987.39
2017-03-06T03:59:24.668Z,987.44
2017-03-06T04:00:17.626Z,987.29
2017-03-06T04:00:44.105Z,987.25
2017-03-06T04:01:05.812Z,987.29
2017-03-06T04:01:27.512Z,987.28
2017-03-06T04:01:53.981Z,987.30
2017-03-06T04:02:15.673Z,987.26
2017-03-06T04:02:42.154Z,987.24
2017-03-06T04:03:03.888Z,987.32
2017-03-06T04:03:25.595Z,987.28
2017-03-06T04:03:47.299Z,987.37
2017-03-06T04:04:09.014Z,987.28
2017-03-06T04:04:30.716Z,987.34
2017-03-06T04:04:57.200Z,987.20
2017-03-06T04:05:18.908Z,987.15
2017-03-06T04:05:40.612Z,987.21
2017-03-06T04:06:02.326Z,987.21
2017-03-06T04:06:24.032Z,987.24
2017-03-06T04:06:45.737Z,987.17
2017-03-06T04:07:12.222Z,987.18
2017-03-06T04:07:33.920Z,987.22
2017-03-06T04:08:00.393Z,987.31
2017-03-06T04:08:22.121Z,987.33
2017-03-06T04:08:43.831Z,987.29
2017-03-06T04:09:05.545Z,987.24
2017-03-06T04:09:27.249Z,987.11
2017-03-06T04:09:48.990Z,987.24
2017-03-06T04:10:10.689Z,987.30
2017-03-06T04:10:32.389Z,987.18
2017-03-06T04:10:54.090Z,987.30
2017-03-06T04:11:15.792Z,987.22
2017-03-06T04:11:37.513Z,987.31
2017-03-06T04:12:04.007Z,987.30
2017-03-06T04:12:30.483Z,987.21
2017-03-06T04:12:52.179Z,987.20
2017-03-06T04:13:18.659Z,987.19
2017-03-06T04:13:40.362Z,987.18
2017-03-06T04:14:02.074Z,987.16
2017-03-06T04:14:28.525Z,987.17
2017-03-06T04:14:50.216Z,987.25
2017-03-06T04:15:16.689Z,987.29
2017-03-06T04:15:38.390Z,987.29
2017-03-06T04:16:04.865Z,987.28
2017-03-06T04:16:26.574Z,987.43
2017-03-06T04:16:48.298Z,987.29
2017-03-06T04:17:10.006Z,987.20
2017-03-06T04:17:31.712Z,987.18
2017-03-06T04:17:58.203Z,987.28
2017-03-06T04:18:19.929Z,987.37
2017-03-06T04:18:41.620Z,987.25
2017-03-06T04:19:08.098Z,987.25
2017-03-06T04:19:29.798Z,987.25
2017-03-06T04:19:51.494Z,987.18
2017-03-06T04:20:17.964Z,987.22
2017-03-06T04:20:39.661Z,987.24
2017-03-06T04:21:06.127Z,987.33
2017-03-06T04:21:27.827Z,987.32
2017-03-06T04:21:54.302Z,987.26
2017-03-06T04:22:16.001Z,987.18
2017-03-06T04:22:37.708Z,987.20
2017-03-06T04:23:04.185Z,987.26
2017-03-06T04:23:25.926Z,987.33
2017-03-06T04:24:18.863Z,987.33
2017-03-06T04:24:40.564Z,987.16
2017-03-06T04:25:07.044Z,987.44
2017-03-06T04:25:28.730Z,987.26
2017-03-06T04:25:50.428Z,987.28
2017-03-06T04:26:43.382Z,987.25
2017-03-06T04:27:05.077Z,987.24
2017-03-06T04:27:58.026Z,987.24
2017-03-06T04:28:50.969Z,987.17
2017-03-06T04:29:12.676Z,987.18
2017-03-06T04:29:34.400Z,987.26
2017-03-06T04:29:56.105Z,987.22
2017-03-06T04:30:17.848Z,987.25
2017-03-06T04:30:39.548Z,987.18
2017-03-06T04:31:01.247Z,987.22
2017-03-06T04:31:22.948Z,987.15
2017-03-06T04:31:49.418Z,987.26
2017-03-06T04:32:11.126Z,987.25
2017-03-06T04:32:32.814Z,987.20
2017-03-06T04:32:54.530Z,987.19
2017-03-06T04:33:16.228Z,987.22
2017-03-06T04:33:37.935Z,987.25
2017-03-06T04:34:04.409Z,987.24
2017-03-06T04:34:26.127Z,987.21
2017-03-06T04:34:47.827Z,987.17
2017-03-06T04:35:14.297Z,987.15
2017-03-06T04:35:36.009Z,987.26
2017-03-06T04:36:02.460Z,987.25
2017-03-06T04:36:24.189Z,987.17
2017-03-06T04:36:50.659Z,987.18
2017-03-06T04:37:12.397Z,987.15
2017-03-06T04:37:34.107Z,987.26
2017-03-06T04:37:55.802Z,987.27
2017-03-06T04:38:17.506Z,987.30
2017-03-06T04:38:43.995Z,987.30
2017-03-06T04:39:05.682Z,987.22
2017-03-06T04:39:58.634Z,987.19
2017-03-06T04:40:51.584Z,987.16
2017-03-06T04:41:13.283Z,987.23
2017-03-06T04:41:34.985Z,987.25
2017-03-06T04:41:56.707Z,987.33
2017-03-06T04:42:23.190Z,987.21
2017-03-06T04:42:44.880Z,987.20
2017-03-06T04:43:06.582Z,987.24
2017-03-06T04:43:59.540Z,987.20
2017-03-06T04:44:21.232Z,987.22
2017-03-06T04:44:42.964Z,987.23
2017-03-06T04:45:04.659Z,987.18
2017-03-06T04:45:26.359Z,987.21
2017-03-06T04:45:48.059Z,987.30
2017-03-06T04:46:09.772Z,987.27
2017-03-06T04:47:02.726Z,987.24
2017-03-06T04:47:55.686Z,987.37
2017-03-06T04:48:17.398Z,987.36
2017-03-06T04:48:39.106Z,987.30
2017-03-06T04:49:00.809Z,987.21
2017-03-06T04:49:22.498Z,987.33
2017-03-06T04:50:15.436Z,987.32
2017-03-06T04:50:37.138Z,987.26
2017-03-06T04:50:58.831Z,987.32
2017-03-06T04:51:25.297Z,987.25
2017-03-06T04:51:51.807Z,987.28
2017-03-06T04:52:13.507Z,987.33
2017-03-06T04:52:39.985Z,987.20
2017-03-06T04:53:01.686Z,987.30
2017-03-06T04:53:23.378Z,987.32
2017-03-06T04:54:16.326Z,987.24
2017-03-06T04:55:09.279Z,987.30
2017-03-06T04:55:30.987Z,987.30
2017-03-06T04:55:57.452Z,987.27
2017-03-06T04:56:19.140Z,987.25
2017-03-06T04:56:45.607Z,987.24
2017-03-06T04:57:07.293Z,987.21
2017-03-06T04:57:29.008Z,987.25
2017-03-06T04:57:50.716Z,987.22
2017-03-06T04:58:12.411Z,987.18
2017-03-06T04:58:34.116Z,987.25
2017-03-06T04:58:55.821Z,987.18
2017-03-06T04:59:17.510Z,987.17
2017-03-06T04:59:44.033Z,987.19
2017-03-06T05:00:05.722Z,987.19
2017-03-06T05:00:27.421Z,987.15
2017-03-06T05:01:25.758Z,987.20
2017-03-06T05:01:47.466Z,987.24
2017-03-06T05:02:09.161Z,987.18
2017-03-06T05:02:30.861Z,987.19
2017-03-06T05:02:52.556Z,987.13
2017-03-06T05:03:45.515Z,987.23
2017-03-06T05:04:07.217Z,987.18
2017-03-06T05:04:33.702Z,987.10
2017-03-06T05:04:55.391Z,987.11
2017-03-06T05:05:21.866Z,987.10
2017-03-06T05:05:43.572Z,987.26
2017-03-06T05:06:10.082Z,987.26
2017-03-06T05:06:31.782Z,987.28
2017-03-06T05:06:58.265Z,987.13
2017-03-06T05:07:19.961Z,987.20
2017-03-06T05:07:41.667Z,987.12
2017-03-06T05:08:39.970Z,987.14
2017-03-06T05:09:01.667Z,987.22
2017-03-06T05:09:23.366Z,987.15
2017-03-06T05:10:16.325Z,987.19
2017-03-06T05:10:42.803Z,987.14
2017-03-06T05:11:04.503Z,987.21
2017-03-06T05:11:30.976Z,987.12
2017-03-06T05:11:52.678Z,987.31
2017-03-06T05:12:14.381Z,987.14
2017-03-06T05:12:40.863Z,987.08
2017-03-06T05:13:02.579Z,987.14
2017-03-06T05:13:24.283Z,987.14
2017-03-06T05:13:45.996Z,987.12
2017-03-06T05:14:07.699Z,987.16
2017-03-06T05:14:34.177Z,987.11
2017-03-06T05:14:55.862Z,987.14
2017-03-06T05:15:17.558Z,987.14
2017-03-06T05:15:39.268Z,987.06
2017-03-06T05:16:00.960Z,987.14
2017-03-06T05:16:22.681Z,987.06
2017-03-06T05:16:49.185Z,987.08
2017-03-06T05:17:10.915Z,987.05
2017-03-06T05:17:37.392Z,987.09
2017-03-06T05:17:59.085Z,987.03
2017-03-06T05:18:20.797Z,987.11
2017-03-06T05:18:42.478Z,987.05
2017-03-06T05:19:04.204Z,987.04
2017-03-06T05:19:25.900Z,987.01
2017-03-06T05:19:52.372Z,987.02
2017-03-06T05:20:14.064Z,987.00
2017-03-06T05:20:35.763Z,987.06
2017-03-06T05:21:02.254Z,987.10
2017-03-06T05:21:23.952Z,987.07
2017-03-06T05:21:50.432Z,987.10
2017-03-06T05:22:12.160Z,986.97
2017-03-06T05:22:33.860Z,987.01
2017-03-06T05:23:00.333Z,987.04
2017-03-06T05:23:22.026Z,987.01
2017-03-06T05:23:43.742Z,987.03
2017-03-06T05:24:05.437Z,986.94
2017-03-06T05:24:27.133Z,987.05
2017-03-06T05:25:20.080Z,987.03
2017-03-06T05:26:23.174Z,987.13
2017-03-06T05:26:44.873Z,987.10
2017-03-06T05:27:06.579Z,987.06
2017-03-06T05:27:28.316Z,986.98
2017-03-06T05:27:50.019Z,987.01
2017-03-06T05:28:42.962Z,986.97
2017-03-06T05:29:09.433Z,987.10
2017-03-06T05:29:31.136Z,987.04
2017-03-06T05:29:57.606Z,986.99
2017-03-06T05:30:19.313Z,987.01
2017-03-06T05:30:45.801Z,986.95
2017-03-06T05:31:07.491Z,986.93
2017-03-06T05:31:29.203Z,986.96
2017-03-06T05:31:55.676Z,987.04
2017-03-06T05:32:17.376Z,986.92
2017-03-06T05:32:39.123Z,987.00
2017-03-06T05:33:00.812Z,986.94
2017-03-06T05:33:22.509Z,986.94
2017-03-06T05:34:15.449Z,987.00
2017-03-06T05:34:37.153Z,987.00
2017-03-06T05:34:58.863Z,986.95
2017-03-06T05:35:20.563Z,986.95
2017-03-06T05:35:42.266Z,986.94
2017-03-06T05:36:08.736Z,987.02
2017-03-06T05:36:30.443Z,986.93
2017-03-06T05:36:52.133Z,986.85
2017-03-06T05:37:13.837Z,986.95